Main page
METAR-TAF:

METAR-TAF

Airports :

Udon Thani International Airport

Udon Thani, Thailand

latitude: 17-23N, longitude: 102-48E, elevation: 177 m

Current weather observation

The report was made 47 minutes ago, at 22:00 UTC
Calm wind
Temperature 20°C
Humidity 78%
Pressure 1014 hPa
Visibility: 8000 m

METAR: VTUD 172200Z 00000KT 8000 NSC 20/16 Q1014 NOSIG

Time: 05:47 (22:47 UTC)

Forecast

The report was made 5 hours and 47 minutes ago, at 17:00 UTC
Forecast valid from 17 at 18 UTC to 18 at 18 UTC
Wind 4 kt from the East/Southeast
Visibility: 7000 m
Becoming
from 17 at 21 UTC to 17 at 23 UTC
Visibility: 4000 m
mist
Becoming
from 18 at 02 UTC to 18 at 04 UTC
Visibility: 9000 m

TAF: VTUD 171700Z 1718/1818 12004KT 7000 NSC BECMG 1721/1723 4000 BR BECMG 1802/1804 9000 NSW

Weather observations and forecasts of more than 4000 airports (METAR and TAF reports).

The available stations are represented by yellow and red dots on the map.

Hover mouse over dot to see the name of the station.

Then click to see weather observations and forecasts.

To change the map : click on the green buttons with a black cross to zoom in, on the green button with a dash to zoom out, or on the green arrows for adjacent maps.


METAR-TAF: